• Join FlightAware (Why Join?)
  • Login
  • US Flag 
01:04PM EDT


 

Airport Tracker/Info


-or-


 

Live Flight TrackerFlight Track Log ✈ N675MC ✈ 15-Sep-2013 ✈ KEWR - KATL

Flight Track Log - Related Links

Times and Time Zones

All times are in EDT time to prevent confusion due to time zone crossing. See the N675MC flight status page for this flight to view local times or setup timezone preferences in your user account.

Time Position Orientation Groundspeed Altitude Reporting Facility
EDT Latitude Longitude Course Direction KTS MPH feet Rate Location/Type
02:30PM 40.6167 -74.1833 233° Southwest 223 257 2,100  Level New York TRACON
02:31PM 40.6000 -74.2667 255° West 241 277 4,200 2,040 Climbing New York TRACON
02:32PM 40.5000 -74.4968 258° West  Level Estimated
02:32PM 40.6000 -74.3667 270° West 261 300 6,400  Level New York TRACON
02:33PM 40.4356 -74.6057 270° West  Level Estimated
02:33PM 40.6000 -74.4500 270° West 265 305 8,600  Level New York TRACON
02:34PM 40.3711 -74.7145 237° Southwest  Level Estimated
02:35PM 40.3065 -74.8230 233° Southwest  Level Estimated
02:35PM 40.5933 -74.6656 268° West 290 334 11,800  Level New York Center
02:36PM 40.5764 -74.7903 260° West 315 362 12,900 1,500 Climbing New York Center
02:37PM 40.5639 -74.9181 263° West 345 397 14,800 1,860 Climbing New York Center
02:38PM 40.5572 -75.0458 266° West 351 404 16,700 1,740 Climbing New York Center
02:39PM 40.5033 -75.1517 236° Southwest 342 394 18,300 1,320 Climbing New York Center
02:40PM 40.4294 -75.2289 219° Southwest 347 399 19,400 1,320 Climbing New York Center
02:41PM 40.3506 -75.3272 224° Southwest 375 432 21,000 1,380 Climbing New York Center
02:42PM 40.2839 -75.4372 232° Southwest 385 443 22,200 1,380 Climbing New York Center
02:43PM 40.2158 -75.5711 236° Southwest 402 463 23,800 1,380 Climbing New York Center
02:44PM 40.1586 -75.6950 239° Southwest 407 468 25,000 1,020 Climbing New York Center
02:45PM 40.1033 -75.8239 241° Southwest 407 468 25,900 900 Climbing New York Center
02:46PM 40.0394 -75.9494 236° Southwest 412 474 26,900 900 Climbing New York Center
02:47PM 39.9733 -76.0747 235° Southwest 418 481 27,800 540 Climbing New York Center
02:48PM 39.9072 -76.2022 236° Southwest 424 488 28,000 240 Climbing New York Center
02:49PM 39.8242 -76.3283 229° Southwest 444 511 28,300 600 Climbing New York Center
02:50PM 39.7492 -76.4547 232° Southwest 449 517 29,300 1,020 Climbing New York Center
02:51PM 39.6803 -76.5867 236° Southwest 449 517 30,400 900 Climbing New York Center
02:52PM 39.6194 -76.7192 239° Southwest 438 504 31,100 660 Climbing New York Center
02:53PM 39.5719 -76.8192 238° Southwest 439 505 31,600 480 Climbing Washington Center
02:54PM 39.5122 -76.9525 240° Southwest 439 505 32,000 180 Climbing Washington Center
02:55PM 39.4425 -77.0400 224° Southwest 445 512 32,000  Level Washington Center
02:56PM 39.3247 -77.1261 209° Southwest 436 502 32,000  Level Washington Center
02:57PM 39.2378 -77.2369 225° Southwest 441 507 32,000  Level Washington Center
02:58PM 39.1486 -77.3419 222° Southwest 441 507 32,000  Level Washington Center
02:59PM 39.0556 -77.4439 220° Southwest 441 507 32,000  Level Washington Center
03:00PM 38.9517 -77.5536 219° Southwest 441 507 32,000  Level Washington Center
03:01PM 38.8583 -77.6522 219° Southwest 441 507 32,000  Level Washington Center
03:02PM 38.7669 -77.7431 218° Southwest 446 513 32,000  Level Washington Center
03:03PM 38.6611 -77.8383 215° Southwest 446 513 32,000  Level Washington Center
03:04PM 38.5775 -77.9500 226° Southwest 441 507 32,000  Level Washington Center
03:05PM 38.5103 -78.0750 236° Southwest 430 495 32,000 120 Level Washington Center
03:06PM 38.4411 -78.1975 234° Southwest 435 501 32,300 480 Climbing Washington Center
03:07PM 38.3694 -78.3219 234° Southwest 435 501 33,000 300 Climbing Washington Center
03:08PM 38.2978 -78.4464 234° Southwest 440 506 33,000 360 Level Washington Center
03:09PM 38.2411 -78.5500 235° Southwest 433 498 33,800 480 Climbing Washington Center
03:10PM 38.1631 -78.6683 230° Southwest 428 493 34,000 60 Climbing Washington Center
03:11PM 38.0850 -78.7839 229° Southwest 434 499 34,000  Level Washington Center
03:12PM 37.9981 -78.9119 229° Southwest 440 506 34,000  Level Washington Center
03:13PM 37.9278 -79.0325 234° Southwest 440 506 34,000  Level Washington Center
03:14PM 37.8494 -79.1500 230° Southwest 440 506 34,000  Level Washington Center
03:15PM 37.7811 -79.2731 235° Southwest 435 501 34,000  Level Washington Center
03:16PM 37.7089 -79.3769 229° Southwest 435 501 34,000  Level Washington Center
03:17PM 37.6172 -79.5008 227° Southwest 446 513 34,000  Level Washington Center
03:18PM 37.5431 -79.6019 227° Southwest 446 513 34,000  Level Washington Center
03:19PM 37.4556 -79.7256 228° Southwest 446 513 34,000  Level Washington Center
03:20PM 37.3786 -79.8364 229° Southwest 449 517 34,000  Level Washington Center
03:21PM 37.2994 -79.9494 229° Southwest 449 517 34,000  Level Washington Center
03:23PM 37.1019 -80.2161 227° Southwest 449 517 34,000  Level Atlanta Center
03:24PM 37.0119 -80.3400 228° Southwest 419 482 34,000  Level Atlanta Center
03:25PM 36.9319 -80.4553 229° Southwest 422 486 34,000  Level Atlanta Center
03:26PM 36.8497 -80.5706 228° Southwest 435 501 34,000  Level Atlanta Center
03:27PM 36.7675 -80.6856 228° Southwest 441 507 34,000  Level Atlanta Center
03:28PM 36.6869 -80.7950 227° Southwest 441 507 34,000  Level Atlanta Center
03:29PM 36.6044 -80.9097 228° Southwest 441 507 34,000  Level Atlanta Center
03:30PM 36.5239 -81.0239 229° Southwest 446 513 34,000  Level Atlanta Center
03:31PM 36.4411 -81.1406 229° Southwest 446 513 34,000  Level Atlanta Center
03:32PM 36.3583 -81.2569 229° Southwest 446 513 34,000  Level Atlanta Center
03:33PM 36.2775 -81.3731 229° Southwest 452 520 34,000  Level Atlanta Center
03:34PM 36.2025 -81.4758 228° Southwest 452 520 34,000  Level Atlanta Center
03:35PM 36.1214 -81.5942 230° Southwest 452 520 34,000  Level Atlanta Center
03:36PM 36.0319 -81.7047 225° Southwest 445 512 34,000  Level Atlanta Center
03:37PM 35.9397 -81.8022 221° Southwest 444 511 34,000  Level Atlanta Center
03:38PM 35.8417 -81.9075 221° Southwest 454 522 34,000  Level Atlanta Center
03:39PM 35.7475 -82.0097 221° Southwest 454 522 34,000  Level Atlanta Center
03:40PM 35.6531 -82.1092 221° Southwest 454 522 34,000  Level Atlanta Center
03:41PM 35.5586 -82.2161 223° Southwest 454 522 34,000 -180 Level Atlanta Center
03:42PM 35.4642 -82.3228 223° Southwest 454 522 33,700 -900 Descending Atlanta Center
03:43PM 35.3761 -82.4342 226° Southwest 464 534 32,200 -1,500 Descending Atlanta Center
03:44PM 35.2839 -82.5656 229° Southwest 470 541 30,800 -1,020 Descending Atlanta Center
03:45PM 35.2181 -82.6633 231° Southwest 470 541 30,200 -1,500 Descending Atlanta Center
03:46PM 35.1153 -82.7997 227° Southwest 463 533 27,800 -2,460 Descending Atlanta Center
03:47PM 35.0244 -82.9100 225° Southwest 458 527 25,300 -2,160 Descending Atlanta Center
03:48PM 34.9317 -83.0203 224° Southwest 464 534 23,500 -1,200 Descending Atlanta Center
03:49PM 34.8489 -83.1100 222° Southwest 458 527 23,000 -300 Descending Atlanta Center
03:50PM 34.7578 -83.2094 222° Southwest 451 519 23,000  Level Atlanta Center
03:51PM 34.6625 -83.3242 225° Southwest 446 513 23,000 -900 Level Atlanta Center
03:52PM 34.5628 -83.4083 215° Southwest 446 513 21,200 -1,500 Descending Atlanta Center
03:53PM 34.4714 -83.5019 220° Southwest 441 507 20,000 -1,500 Descending Atlanta Center
03:54PM 34.3842 -83.5858 218° Southwest 421 484 18,200 -1,740 Descending Atlanta Center
03:55PM 34.2947 -83.6642 216° Southwest 415 478 16,600 -1,680 Descending Atlanta Center
03:56PM 34.2031 -83.7400 214° Southwest 404 465 14,900 -1,320 Descending Atlanta Center
03:57PM 34.1197 -83.8156 217° Southwest 394 453 14,000 -600 Descending Atlanta Center
03:58PM 34.0508 -83.8983 225° Southwest 363 418 13,700 -600 Descending Atlanta Center
03:59PM 34.0167 -83.9500 231° Southwest 309 356 13,000 -960 Descending Atlanta TRACON
04:00PM 33.9500 -84.0167 220° Southwest 295 339 12,100 -540 Descending Atlanta TRACON
04:01PM 33.9000 -84.1000 234° Southwest 288 331 12,000 -60 Descending Atlanta TRACON
04:02PM 33.8500 -84.1667 228° Southwest 291 335 12,000  Level Atlanta TRACON
04:03PM 33.7833 -84.2500 226° Southwest 292 336 12,000 -120 Level Atlanta TRACON
04:04PM 33.7500 -84.3167 239° Southwest 244 281 11,800 -900 Descending Atlanta TRACON
04:05PM 33.7333 -84.3833 253° West 246 283 10,300 -1,500 Descending Atlanta TRACON
04:06PM 33.7333 -84.4667 270° West 237 273 8,900 -1,380 Descending Atlanta TRACON
04:07PM 33.7333 -84.5500 270° West 222 255 7,600 -1,380 Descending Atlanta TRACON
04:08PM 33.7333 -84.6167 270° West 227 261 6,200 -1,380 Descending Atlanta TRACON
04:09PM 33.7167 -84.7000 257° West 223 257 4,900 -1,080 Descending Atlanta TRACON
04:10PM 33.7000 -84.7500 248° West 229 264 4,100 -480 Descending Atlanta TRACON
04:11PM 33.6667 -84.6833 121° Southeast 181 208 4,000  Descending Atlanta TRACON
04:12PM 33.6500 -84.6333 112° Southeast 178 205 4,100 -420 Climbing Atlanta TRACON
04:13PM 33.6500 -84.5667 90° East 187 215 3,200 -960 Descending Atlanta TRACON
04:14PM 33.6500 -84.5167 90° East 156 180 2,200 -900 Descending Atlanta TRACON
04:15PM 33.6500 -84.4667 90° East 149 171 1,500 -780 Descending Atlanta TRACON